createdAt,value
2023-02-28T00:01:16.635Z,97754.16
2023-02-28T00:03:44.181Z,97755.72
2023-02-28T00:06:12.166Z,97749.69
2023-02-28T00:08:40.059Z,97741.31
2023-02-28T00:11:10.392Z,97747.56
2023-02-28T00:13:39.860Z,97749.44
2023-02-28T00:16:11.187Z,97747.47
2023-02-28T00:18:38.943Z,97741.47
2023-02-28T00:21:07.847Z,97749.53
2023-02-28T00:23:35.813Z,97734.78
2023-02-28T00:26:03.697Z,97742.53
2023-02-28T00:28:31.380Z,97749.38
2023-02-28T00:31:00.968Z,97734.69
2023-02-28T00:33:30.230Z,97737.66
2023-02-28T00:36:06.950Z,97738.59
2023-02-28T00:38:34.750Z,97736.91
2023-02-28T00:41:05.534Z,97737.38
2023-02-28T00:43:34.456Z,97731.03
2023-02-28T00:46:02.404Z,97726.88
2023-02-28T00:48:31.465Z,97733.41
2023-02-28T00:50:59.477Z,97727.31
2023-02-28T00:53:27.294Z,97729.75
2023-02-28T00:55:54.987Z,97730.69
2023-02-28T00:58:22.566Z,97717.41
2023-02-28T01:00:50.620Z,97729.97
2023-02-28T01:03:18.788Z,97719.13
2023-02-28T01:05:48.786Z,97715.31
2023-02-28T01:08:17.021Z,97721.91
2023-02-28T01:10:44.672Z,97719.00
2023-02-28T01:13:12.566Z,97716.69
2023-02-28T01:15:41.750Z,97713.69
2023-02-28T01:18:09.294Z,97712.06
2023-02-28T01:20:38.637Z,97720.81
2023-02-28T01:23:07.994Z,97716.00
2023-02-28T01:25:36.660Z,97708.59
2023-02-28T01:28:04.530Z,97717.03
2023-02-28T01:30:32.586Z,97713.88
2023-02-28T01:33:00.501Z,97715.03
2023-02-28T01:35:28.037Z,97712.44
2023-02-28T01:37:55.654Z,97720.94
2023-02-28T01:40:24.510Z,97711.53
2023-02-28T01:42:52.141Z,97713.50
2023-02-28T01:45:24.206Z,97719.56
2023-02-28T01:47:54.002Z,97724.97
2023-02-28T01:50:23.515Z,97721.44
2023-02-28T01:52:52.234Z,97724.59
2023-02-28T01:55:21.246Z,97719.63
2023-02-28T01:57:51.221Z,97718.13
2023-02-28T02:00:21.426Z,97713.88
2023-02-28T02:02:51.492Z,97706.22
2023-02-28T02:05:22.186Z,97704.59
2023-02-28T02:07:51.684Z,97693.50
2023-02-28T02:10:22.807Z,97692.84
2023-02-28T02:13:16.239Z,97691.84
2023-02-28T02:15:46.784Z,97694.59
2023-02-28T02:18:21.128Z,97688.66
2023-02-28T02:21:23.219Z,97675.91
2023-02-28T02:24:16.388Z,97690.66
2023-02-28T02:27:01.033Z,97692.00
2023-02-28T02:30:01.286Z,97686.16
2023-02-28T02:33:11.439Z,97692.13
2023-02-28T02:35:47.409Z,97683.28
2023-02-28T02:38:22.024Z,97690.66
2023-02-28T02:40:56.713Z,97683.91
2023-02-28T02:43:28.044Z,97685.00
2023-02-28T02:45:58.657Z,97685.84
2023-02-28T02:48:28.077Z,97685.13
2023-02-28T02:50:59.338Z,97688.50
2023-02-28T02:53:31.125Z,97692.09
2023-02-28T02:56:00.240Z,97692.44
2023-02-28T02:58:30.844Z,97684.19
2023-02-28T03:01:00.719Z,97686.00
2023-02-28T03:03:30.668Z,97694.25
2023-02-28T03:06:01.450Z,97694.81
2023-02-28T03:08:30.219Z,97702.63
2023-02-28T03:10:59.579Z,97697.59
2023-02-28T03:13:45.495Z,97692.66
2023-02-28T03:16:25.742Z,97688.31
2023-02-28T03:18:59.559Z,97692.91
2023-02-28T03:21:32.074Z,97687.03
2023-02-28T03:24:06.284Z,97702.09
2023-02-28T03:26:36.441Z,97695.59
2023-02-28T03:29:06.335Z,97698.25
2023-02-28T03:31:37.547Z,97692.47
2023-02-28T03:34:08.097Z,97697.63
2023-02-28T03:36:45.015Z,97702.56
2023-02-28T03:39:16.591Z,97692.50
2023-02-28T03:41:45.628Z,97706.88
2023-02-28T03:44:18.163Z,97701.34
2023-02-28T03:46:51.030Z,97689.47
2023-02-28T03:49:21.945Z,97691.88
2023-02-28T03:51:52.108Z,97701.28
2023-02-28T03:54:22.166Z,97684.47
2023-02-28T03:56:54.898Z,97709.78
2023-02-28T03:59:27.255Z,97697.28
2023-02-28T04:01:56.253Z,97704.31
2023-02-28T04:04:24.236Z,97711.31
2023-02-28T04:06:53.703Z,97702.78
2023-02-28T04:09:21.227Z,97707.97
2023-02-28T04:11:53.358Z,97707.22
2023-02-28T04:14:21.494Z,97708.06
2023-02-28T04:16:49.301Z,97708.19
2023-02-28T04:19:17.228Z,97711.41
2023-02-28T04:21:46.914Z,97717.25
2023-02-28T04:24:17.686Z,97713.09
2023-02-28T04:26:46.809Z,97704.75
2023-02-28T04:29:15.571Z,97707.50
2023-02-28T04:31:43.186Z,97704.75
2023-02-28T04:34:11.004Z,97707.34
2023-02-28T04:36:38.548Z,97709.88
2023-02-28T04:39:06.214Z,97705.66
2023-02-28T04:41:35.308Z,97715.25
2023-02-28T04:44:03.052Z,97708.31
2023-02-28T04:46:31.463Z,97710.00
2023-02-28T04:48:59.105Z,97715.03
2023-02-28T04:51:26.989Z,97714.03
2023-02-28T04:53:54.976Z,97697.16
2023-02-28T04:56:22.758Z,97710.56
2023-02-28T04:58:51.743Z,97709.72
2023-02-28T05:01:26.087Z,97703.81
2023-02-28T05:03:55.083Z,97709.78
2023-02-28T05:06:24.720Z,97712.22
2023-02-28T05:08:52.633Z,97708.38
2023-02-28T05:11:22.540Z,97707.41
2023-02-28T05:13:52.768Z,97705.00
2023-02-28T05:16:20.739Z,97697.97
2023-02-28T05:18:48.506Z,97707.72
2023-02-28T05:21:28.878Z,97703.97
2023-02-28T05:23:57.528Z,97703.00
2023-02-28T05:26:25.301Z,97705.53
2023-02-28T05:28:54.503Z,97700.84
2023-02-28T05:31:22.234Z,97703.72
2023-02-28T05:33:49.863Z,97696.56
2023-02-28T05:36:17.358Z,97698.25
2023-02-28T05:38:44.932Z,97689.66
2023-02-28T05:41:12.880Z,97692.94
2023-02-28T05:43:40.454Z,97695.34
2023-02-28T05:46:11.502Z,97699.38
2023-02-28T05:48:40.616Z,97697.03
2023-02-28T05:51:10.104Z,97685.38
2023-02-28T05:53:38.324Z,97691.47
2023-02-28T05:56:06.627Z,97691.69
2023-02-28T05:58:34.508Z,97696.47
2023-02-28T06:01:03.237Z,97691.72
2023-02-28T06:03:32.261Z,97696.31
2023-02-28T06:05:59.841Z,97692.25
2023-02-28T06:08:27.647Z,97695.81
2023-02-28T06:10:55.239Z,97708.22
2023-02-28T06:13:22.763Z,97706.09
2023-02-28T06:15:50.436Z,97706.75
2023-02-28T06:18:18.031Z,97707.81
2023-02-28T06:20:49.503Z,97702.38
2023-02-28T06:23:16.996Z,97702.53
2023-02-28T06:25:47.006Z,97703.59
2023-02-28T06:28:14.551Z,97710.66
2023-02-28T06:30:42.106Z,97712.09
2023-02-28T06:33:09.633Z,97713.69
2023-02-28T06:35:37.218Z,97706.31
2023-02-28T06:38:06.102Z,97714.38
2023-02-28T06:40:36.019Z,97719.84
2023-02-28T06:43:03.816Z,97711.56
2023-02-28T06:45:31.429Z,97727.16
2023-02-28T06:47:59.424Z,97729.56
2023-02-28T06:50:28.598Z,97739.94
2023-02-28T06:52:56.613Z,97729.34
2023-02-28T06:55:25.451Z,97737.88
2023-02-28T06:57:53.001Z,97741.13
2023-02-28T07:00:21.216Z,97739.38
2023-02-28T07:02:49.035Z,97740.97
2023-02-28T07:05:16.630Z,97741.59
2023-02-28T07:07:46.267Z,97745.53
2023-02-28T07:10:14.627Z,97744.97
2023-02-28T07:12:44.396Z,97749.06
2023-02-28T07:15:12.535Z,97747.91
2023-02-28T07:17:40.236Z,97746.00
2023-02-28T07:20:09.325Z,97746.50
2023-02-28T07:22:36.902Z,97739.56
2023-02-28T07:25:05.159Z,97744.41
2023-02-28T07:27:32.789Z,97756.56
2023-02-28T07:30:02.759Z,97753.69
2023-02-28T07:32:30.487Z,97759.34
2023-02-28T07:34:58.273Z,97747.69
2023-02-28T07:37:25.942Z,97766.25
2023-02-28T07:39:53.472Z,97752.13
2023-02-28T07:42:21.861Z,97744.00
2023-02-28T07:44:49.419Z,97747.06
2023-02-28T07:47:18.284Z,97754.53
2023-02-28T07:49:47.160Z,97750.31
2023-02-28T07:52:14.673Z,97748.03
2023-02-28T07:54:42.160Z,97745.34
2023-02-28T07:57:10.528Z,97743.00
2023-02-28T07:59:38.136Z,97744.56
2023-02-28T08:02:05.672Z,97750.13
2023-02-28T08:04:35.098Z,97757.66
2023-02-28T08:07:03.199Z,97747.34
2023-02-28T08:09:30.995Z,97753.59
2023-02-28T08:11:58.492Z,97755.00
2023-02-28T08:14:26.159Z,97752.16
2023-02-28T08:16:53.748Z,97748.25
2023-02-28T08:19:21.241Z,97762.56
2023-02-28T08:21:50.271Z,97755.97
2023-02-28T08:24:17.914Z,97757.16
2023-02-28T08:26:45.497Z,97758.31
2023-02-28T08:29:13.051Z,97751.13
2023-02-28T08:31:40.695Z,97754.56
2023-02-28T08:34:08.823Z,97763.50
2023-02-28T08:36:36.745Z,97763.84
2023-02-28T08:39:05.925Z,97769.25
2023-02-28T08:41:33.745Z,97775.50
2023-02-28T08:44:01.342Z,97774.53
2023-02-28T08:46:29.169Z,97772.19
2023-02-28T08:49:00.334Z,97774.28
2023-02-28T08:51:28.598Z,97776.44
2023-02-28T08:53:58.305Z,97768.25
2023-02-28T08:56:27.986Z,97777.03
2023-02-28T08:58:58.013Z,97782.09
2023-02-28T09:01:29.228Z,97770.59
2023-02-28T09:03:58.227Z,97775.53
2023-02-28T09:06:28.478Z,97777.72
2023-02-28T09:09:00.698Z,97767.75
2023-02-28T09:11:30.030Z,97769.72
2023-02-28T09:13:57.711Z,97769.44
2023-02-28T09:16:25.461Z,97776.69
2023-02-28T09:18:53.043Z,97772.84
2023-02-28T09:21:21.273Z,97765.44
2023-02-28T09:23:50.363Z,97770.25
2023-02-28T09:26:20.282Z,97774.22
2023-02-28T09:28:49.194Z,97768.31
2023-02-28T09:31:21.791Z,97774.03
2023-02-28T09:33:49.949Z,97770.09
2023-02-28T09:36:17.590Z,97763.94
2023-02-28T09:38:48.091Z,97776.47
2023-02-28T09:41:18.169Z,97767.88
2023-02-28T09:43:49.243Z,97771.75
2023-02-28T09:46:27.992Z,97775.31
2023-02-28T09:48:57.469Z,97774.59
2023-02-28T09:51:35.515Z,97775.13
2023-02-28T09:54:03.313Z,97773.84
2023-02-28T09:56:35.666Z,97780.00
2023-02-28T09:59:07.882Z,97779.91
2023-02-28T10:01:41.327Z,97778.75
2023-02-28T10:04:16.251Z,97769.56
2023-02-28T10:06:47.344Z,97776.88
2023-02-28T10:09:17.926Z,97778.22
2023-02-28T10:14:22.217Z,97774.81
2023-02-28T10:16:53.090Z,97781.19
2023-02-28T10:19:22.852Z,97771.47
2023-02-28T10:21:56.255Z,97770.53
2023-02-28T10:24:29.777Z,97779.03
2023-02-28T10:27:01.672Z,97777.53
2023-02-28T10:29:33.925Z,97774.69
2023-02-28T10:32:03.662Z,97781.50
2023-02-28T10:34:31.307Z,97783.28
2023-02-28T10:37:08.186Z,97779.06
2023-02-28T10:39:40.830Z,97784.72
2023-02-28T10:42:26.852Z,97786.19
2023-02-28T10:45:12.204Z,97772.69
2023-02-28T10:47:51.866Z,97774.09
2023-02-28T10:50:37.577Z,97773.41
2023-02-28T10:53:18.808Z,97774.38
2023-02-28T10:55:46.348Z,97781.50
2023-02-28T10:58:23.209Z,97778.53
2023-02-28T11:00:53.441Z,97765.69
2023-02-28T11:03:32.136Z,97775.66
2023-02-28T11:06:00.582Z,97787.75
2023-02-28T11:08:28.230Z,97783.81
2023-02-28T11:10:57.645Z,97787.81
2023-02-28T11:13:28.577Z,97783.81
2023-02-28T11:15:59.988Z,97782.38
2023-02-28T11:18:31.812Z,97787.31
2023-02-28T11:21:01.694Z,97776.03
2023-02-28T11:23:31.252Z,97778.38
2023-02-28T11:26:00.567Z,97783.94
2023-02-28T11:28:32.004Z,97781.34
2023-02-28T11:31:07.351Z,97778.75
2023-02-28T11:33:43.076Z,97769.69
2023-02-28T11:36:13.856Z,97775.78
2023-02-28T11:38:41.538Z,97776.38
2023-02-28T11:41:28.788Z,97774.38
2023-02-28T11:44:07.117Z,97772.13
2023-02-28T11:46:41.334Z,97772.16
2023-02-28T11:49:28.023Z,97764.88
2023-02-28T11:51:59.010Z,97772.59
2023-02-28T11:54:36.401Z,97768.09
2023-02-28T11:57:13.249Z,97761.47
2023-02-28T11:59:52.904Z,97762.34
2023-02-28T12:02:29.175Z,97760.34
2023-02-28T12:05:14.519Z,97771.88
2023-02-28T12:07:51.585Z,97768.28
2023-02-28T12:10:24.041Z,97769.16
2023-02-28T12:13:05.012Z,97761.16
2023-02-28T12:16:09.147Z,97769.28
2023-02-28T12:19:03.193Z,97768.97
2023-02-28T12:21:38.793Z,97764.72
2023-02-28T12:24:18.738Z,97760.13
2023-02-28T12:26:47.601Z,97760.63
2023-02-28T12:29:20.471Z,97765.28
2023-02-28T12:31:52.764Z,97759.03
2023-02-28T12:34:25.102Z,97763.69
2023-02-28T12:36:54.320Z,97759.50
2023-02-28T12:39:25.999Z,97749.69
2023-02-28T12:41:55.417Z,97749.94
2023-02-28T12:44:28.138Z,97741.94
2023-02-28T12:46:59.240Z,97735.09
2023-02-28T12:49:32.583Z,97729.09
2023-02-28T12:52:01.740Z,97739.50
2023-02-28T12:54:32.607Z,97735.31
2023-02-28T12:57:07.838Z,97728.06
2023-02-28T12:59:40.297Z,97732.66
2023-02-28T13:02:46.105Z,97726.88
2023-02-28T13:05:52.444Z,97721.53
2023-02-28T13:08:32.399Z,97721.41
2023-02-28T13:11:00.197Z,97717.56
2023-02-28T13:13:31.483Z,97714.22
2023-02-28T13:16:01.767Z,97705.75
2023-02-28T13:18:33.221Z,97720.91
2023-02-28T13:21:02.384Z,97724.88
2023-02-28T13:24:02.987Z,97711.06
2023-02-28T13:27:09.518Z,97722.47
2023-02-28T13:29:41.357Z,97718.88
2023-02-28T13:32:39.993Z,97730.19
2023-02-28T13:35:46.110Z,97721.47
2023-02-28T13:38:27.265Z,97726.59
2023-02-28T13:40:54.867Z,97724.69
2023-02-28T13:43:34.623Z,97723.03
2023-02-28T13:46:14.773Z,97722.34
2023-02-28T13:48:43.004Z,97729.78
2023-02-28T13:51:33.374Z,97733.16
2023-02-28T13:54:06.105Z,97727.59
2023-02-28T13:56:42.693Z,97726.41
2023-02-28T13:59:19.920Z,97729.97
2023-02-28T14:01:55.656Z,97726.47
2023-02-28T14:04:41.526Z,97735.53
2023-02-28T14:07:09.918Z,97723.06
2023-02-28T14:09:41.128Z,97728.06
2023-02-28T14:12:46.314Z,97730.09
2023-02-28T14:15:42.102Z,97719.75
2023-02-28T14:18:18.576Z,97722.97
2023-02-28T14:20:48.669Z,97724.13
2023-02-28T14:23:26.254Z,97716.78
2023-02-28T14:25:59.281Z,97714.41
2023-02-28T14:28:38.464Z,97720.97
2023-02-28T14:31:10.732Z,97712.88
2023-02-28T14:34:02.589Z,97710.97
2023-02-28T14:36:35.041Z,97720.09
2023-02-28T14:39:05.577Z,97709.19
2023-02-28T14:41:37.963Z,97726.53
2023-02-28T14:44:16.435Z,97720.81
2023-02-28T14:46:44.874Z,97722.00
2023-02-28T14:49:19.202Z,97721.44
2023-02-28T14:51:48.271Z,97725.81
2023-02-28T14:54:18.223Z,97717.25
2023-02-28T14:56:51.317Z,97728.44
2023-02-28T14:59:26.971Z,97721.97
2023-02-28T15:02:09.385Z,97718.22
2023-02-28T15:04:37.045Z,97724.13
2023-02-28T15:07:11.286Z,97725.53
2023-02-28T15:09:38.890Z,97721.03
2023-02-28T15:12:08.249Z,97720.44
2023-02-28T15:14:39.164Z,97715.66
2023-02-28T15:17:11.331Z,97720.41
2023-02-28T15:19:43.314Z,97715.75
2023-02-28T15:22:15.429Z,97717.53
2023-02-28T15:24:44.543Z,97716.59
2023-02-28T15:27:16.526Z,97722.38
2023-02-28T15:29:46.842Z,97723.38
2023-02-28T15:32:26.436Z,97715.75
2023-02-28T15:34:55.115Z,97716.81
2023-02-28T15:37:31.921Z,97723.00
2023-02-28T15:40:08.135Z,97725.22
2023-02-28T15:42:37.029Z,97728.09
2023-02-28T15:45:05.183Z,97725.22
2023-02-28T15:47:33.111Z,97727.59
2023-02-28T15:50:02.808Z,97732.19
2023-02-28T15:52:33.432Z,97741.50
2023-02-28T15:55:00.970Z,97743.25
2023-02-28T15:57:30.511Z,97741.16
2023-02-28T16:00:01.827Z,97735.44
2023-02-28T16:02:34.168Z,97749.84
2023-02-28T16:05:21.714Z,97741.72
2023-02-28T16:07:49.897Z,97738.09
2023-02-28T16:10:17.754Z,97744.66
2023-02-28T16:12:46.330Z,97746.84
2023-02-28T16:15:21.922Z,97743.13
2023-02-28T16:17:49.722Z,97746.25
2023-02-28T16:20:19.072Z,97735.59
2023-02-28T16:22:46.649Z,97743.84
2023-02-28T16:25:15.238Z,97746.66
2023-02-28T16:27:43.467Z,97749.47
2023-02-28T16:30:17.821Z,97744.13
2023-02-28T16:32:46.872Z,97744.66
2023-02-28T16:35:15.046Z,97756.28
2023-02-28T16:37:43.313Z,97751.50
2023-02-28T16:40:16.566Z,97751.91
2023-02-28T16:42:44.633Z,97745.59
2023-02-28T16:45:19.252Z,97756.00
2023-02-28T16:47:48.298Z,97760.06
2023-02-28T16:50:18.801Z,97762.13
2023-02-28T16:52:46.489Z,97759.41
2023-02-28T16:55:14.128Z,97763.34
2023-02-28T16:57:42.491Z,97756.13
2023-02-28T17:00:15.046Z,97759.69
2023-02-28T17:02:43.322Z,97759.03
2023-02-28T17:05:13.434Z,97773.63
2023-02-28T17:07:41.884Z,97772.69
2023-02-28T17:10:16.101Z,97777.47
2023-02-28T17:12:46.207Z,97784.34
2023-02-28T17:15:15.896Z,97787.88
2023-02-28T17:17:44.682Z,97791.38
2023-02-28T17:20:15.970Z,97789.34
2023-02-28T17:22:43.641Z,97776.84
2023-02-28T17:25:12.361Z,97791.72
2023-02-28T17:27:40.244Z,97791.53
2023-02-28T17:30:16.505Z,97794.09
2023-02-28T17:32:44.313Z,97792.22
2023-02-28T17:35:12.224Z,97791.88
2023-02-28T17:37:41.186Z,97798.19
2023-02-28T17:40:15.333Z,97798.19
2023-02-28T17:42:42.958Z,97795.69
2023-02-28T17:45:11.157Z,97793.19
2023-02-28T17:47:38.729Z,97796.06
2023-02-28T17:50:07.319Z,97806.38
2023-02-28T17:52:37.605Z,97807.47
2023-02-28T17:55:07.545Z,97806.66
2023-02-28T17:57:35.346Z,97808.88
2023-02-28T18:00:06.851Z,97804.06
2023-02-28T18:02:34.558Z,97812.94
2023-02-28T18:05:04.094Z,97796.63
2023-02-28T18:07:31.786Z,97803.41
2023-02-28T18:09:59.361Z,97802.75
2023-02-28T18:12:28.483Z,97798.94
2023-02-28T18:14:56.037Z,97810.09
2023-02-28T18:17:23.547Z,97802.94
2023-02-28T18:19:51.564Z,97810.16
2023-02-28T18:22:19.174Z,97803.78
2023-02-28T18:24:46.782Z,97801.44
2023-02-28T18:27:14.317Z,97801.44
2023-02-28T18:29:43.155Z,97804.22
2023-02-28T18:32:10.916Z,97801.63
2023-02-28T18:34:38.491Z,97804.34
2023-02-28T18:37:06.042Z,97797.81
2023-02-28T18:39:33.752Z,97801.88
2023-02-28T18:42:01.347Z,97798.53
2023-02-28T18:44:28.880Z,97806.16
2023-02-28T18:46:57.893Z,97797.72
2023-02-28T18:49:25.655Z,97792.53
2023-02-28T18:51:53.500Z,97792.22
2023-02-28T18:54:21.252Z,97789.44
2023-02-28T18:56:50.959Z,97793.72
2023-02-28T18:59:18.485Z,97792.53
2023-02-28T19:01:46.602Z,97794.34
2023-02-28T19:04:16.207Z,97795.19
2023-02-28T19:06:43.833Z,97790.75
2023-02-28T19:09:11.822Z,97793.16
2023-02-28T19:11:39.522Z,97791.97
2023-02-28T19:14:08.250Z,97795.88
2023-02-28T19:16:36.310Z,97790.19
2023-02-28T19:19:03.897Z,97794.91
2023-02-28T19:21:32.895Z,97799.09
2023-02-28T19:24:00.434Z,97803.63
2023-02-28T19:26:28.364Z,97797.59
2023-02-28T19:28:56.447Z,97800.56
2023-02-28T19:31:25.978Z,97798.22
2023-02-28T19:33:53.882Z,97802.13
2023-02-28T19:36:22.490Z,97799.28
2023-02-28T19:38:52.700Z,97798.34
2023-02-28T19:41:20.365Z,97798.25
2023-02-28T19:43:48.327Z,97799.53
2023-02-28T19:46:16.190Z,97796.19
2023-02-28T19:48:44.899Z,97788.75
2023-02-28T19:51:14.721Z,97795.38
2023-02-28T19:53:43.604Z,97806.84
2023-02-28T19:56:12.910Z,97807.69
2023-02-28T19:58:40.479Z,97806.38
2023-02-28T20:01:09.935Z,97805.31
2023-02-28T20:03:37.577Z,97812.09
2023-02-28T20:06:07.581Z,97797.91
2023-02-28T20:08:35.183Z,97811.38
2023-02-28T20:11:06.505Z,97807.72
2023-02-28T20:13:35.826Z,97811.47
2023-02-28T20:16:06.040Z,97798.69
2023-02-28T20:18:34.096Z,97796.50
2023-02-28T20:21:02.278Z,97795.22
2023-02-28T20:23:30.244Z,97788.34
2023-02-28T20:26:00.001Z,97786.66
2023-02-28T20:28:27.524Z,97790.75
2023-02-28T20:30:56.928Z,97784.16
2023-02-28T20:33:25.018Z,97792.94
2023-02-28T20:35:59.631Z,97788.88
2023-02-28T20:38:28.285Z,97786.41
2023-02-28T20:40:56.228Z,97776.94
2023-02-28T20:43:24.467Z,97781.94
2023-02-28T20:45:52.668Z,97777.72
2023-02-28T20:48:22.347Z,97775.97
2023-02-28T20:50:50.460Z,97778.75
2023-02-28T20:53:18.561Z,97787.16
2023-02-28T20:55:54.716Z,97777.72
2023-02-28T20:58:22.313Z,97785.59
2023-02-28T21:00:49.974Z,97782.66
2023-02-28T21:03:17.494Z,97786.34
2023-02-28T21:05:46.468Z,97774.72
2023-02-28T21:08:14.012Z,97783.63
2023-02-28T21:10:41.716Z,97783.81
2023-02-28T21:13:09.270Z,97781.41
2023-02-28T21:15:38.582Z,97779.91
2023-02-28T21:18:06.200Z,97778.25
2023-02-28T21:20:33.947Z,97779.09
2023-02-28T21:23:02.937Z,97778.81
2023-02-28T21:25:30.448Z,97779.00
2023-02-28T21:27:58.139Z,97768.44
2023-02-28T21:30:25.646Z,97784.69
2023-02-28T21:32:53.202Z,97777.88
2023-02-28T21:35:21.257Z,97786.16
2023-02-28T21:37:48.789Z,97782.16
2023-02-28T21:40:18.260Z,97783.25
2023-02-28T21:42:45.818Z,97772.13
2023-02-28T21:45:13.426Z,97776.41
2023-02-28T21:47:41.502Z,97774.91
2023-02-28T21:50:11.018Z,97782.78
2023-02-28T21:52:39.057Z,97775.09
2023-02-28T21:55:07.482Z,97779.84
2023-02-28T21:57:36.621Z,97790.50
2023-02-28T22:00:06.810Z,97785.78
2023-02-28T22:02:36.762Z,97789.75
2023-02-28T22:05:04.381Z,97784.63
2023-02-28T22:07:31.923Z,97789.25
2023-02-28T22:09:59.440Z,97792.41
2023-02-28T22:12:26.990Z,97779.91
2023-02-28T22:14:56.163Z,97789.00
2023-02-28T22:17:23.836Z,97782.13
2023-02-28T22:19:51.329Z,97796.16
2023-02-28T22:22:19.495Z,97768.97
2023-02-28T22:24:46.994Z,97794.31
2023-02-28T22:27:14.622Z,97783.81
2023-02-28T22:29:42.404Z,97793.28
2023-02-28T22:32:11.818Z,97781.06
2023-02-28T22:34:39.368Z,97780.13
2023-02-28T22:37:07.648Z,97780.72
2023-02-28T22:39:35.495Z,97790.50
2023-02-28T22:42:03.029Z,97778.75
2023-02-28T22:44:31.092Z,97779.91
2023-02-28T22:46:58.616Z,97783.97
2023-02-28T22:49:27.659Z,97788.44
2023-02-28T22:51:55.327Z,97782.38
2023-02-28T22:54:23.058Z,97782.00
2023-02-28T22:56:50.669Z,97784.16
2023-02-28T22:59:18.412Z,97769.09
2023-02-28T23:01:46.093Z,97770.63
2023-02-28T23:04:15.414Z,97771.44
2023-02-28T23:06:44.505Z,97776.72
2023-02-28T23:09:14.661Z,97777.72
2023-02-28T23:11:46.590Z,97771.69
2023-02-28T23:14:15.511Z,97766.78
2023-02-28T23:16:45.431Z,97768.28
2023-02-28T23:19:15.283Z,97760.91
2023-02-28T23:21:45.089Z,97766.38
2023-02-28T23:24:14.153Z,97765.72
2023-02-28T23:26:43.932Z,97766.81
2023-02-28T23:29:11.613Z,97774.00
2023-02-28T23:31:39.198Z,97774.75
2023-02-28T23:34:07.418Z,97765.03
2023-02-28T23:36:34.968Z,97772.25
2023-02-28T23:39:03.945Z,97762.31
2023-02-28T23:41:31.730Z,97772.25
2023-02-28T23:43:59.246Z,97774.75
2023-02-28T23:46:27.039Z,97776.22
2023-02-28T23:48:54.578Z,97779.28
2023-02-28T23:51:22.867Z,97766.06
2023-02-28T23:53:52.641Z,97774.78
2023-02-28T23:56:23.346Z,97791.59
2023-02-28T23:58:51.833Z,97796.25
